Time;durP1;ratioP1;P1;durP2;ratioP2;P2;SDS_P1;SDS_P2;PMS_P1;PMS_P2;Temp;Humidity;BMP_temperature;BMP_pressure;BME280_temperature;BME280_humidity;BME280_pressure;Samples;Min_cycle;Max_cycle;Signal;HPM_P1;HPM_P2
2023/05/16 00:01:36;;;;;;;;;3.00;2.00;;;;;;;;5048117;28;11133;-86
2023/05/16 00:04:06;;;;;;;;;2.75;1.25;;;;;;;;5046497;28;12020;-82
2023/05/16 00:06:34;;;;;;;;;2.25;1.50;;;;;;;;5048496;28;11062;-84
2023/05/16 00:09:01;;;;;;;;;5.50;3.75;;;;;;;;5048948;28;10978;-82
2023/05/16 00:11:31;;;;;;;;;2.00;2.00;;;;;;;;5048751;28;10951;-83
2023/05/16 00:14:00;;;;;;;;;4.50;3.00;;;;;;;;5047434;28;10984;-81
2023/05/16 00:16:28;;;;;;;;;3.25;2.75;;;;;;;;5048732;28;11191;-81
2023/05/16 00:18:56;;;;;;;;;3.00;3.00;;;;;;;;5048094;28;11061;-81
2023/05/16 00:21:26;;;;;;;;;0.00;0.00;;;;;;;;5046861;28;10969;-84
2023/05/16 00:23:53;;;;;;;;;4.00;4.00;;;;;;;;5048298;28;11067;-81
2023/05/16 00:26:21;;;;;;;;;3.50;1.75;;;;;;;;5048725;28;11065;-83
2023/05/16 00:28:50;;;;;;;;;5.00;3.75;;;;;;;;5047928;28;10905;-81
2023/05/16 00:31:18;;;;;;;;;3.00;2.75;;;;;;;;5048193;28;11385;-81
2023/05/16 00:33:45;;;;;;;;;4.75;4.00;;;;;;;;5048333;28;11233;-83
2023/05/16 00:36:12;;;;;;;;;5.50;2.50;;;;;;;;5043475;28;11140;-81
2023/05/16 00:38:41;;;;;;;;;4.50;3.75;;;;;;;;5044849;28;11257;-81
2023/05/16 00:41:08;;;;;;;;;3.50;3.50;;;;;;;;5048392;28;11064;-81
2023/05/16 00:43:35;;;;;;;;;3.75;3.00;;;;;;;;5048537;28;11141;-85
2023/05/16 00:46:04;;;;;;;;;2.75;1.00;;;;;;;;5048517;28;11070;-81
2023/05/16 00:48:31;;;;;;;;;5.00;4.75;;;;;;;;5048352;28;11145;-81
2023/05/16 00:51:01;;;;;;;;;2.75;2.75;;;;;;;;5050594;28;11706;-80
2023/05/16 00:53:29;;;;;;;;;7.75;4.00;;;;;;;;5051261;28;11055;-80
2023/05/16 00:55:59;;;;;;;;;6.00;4.00;;;;;;;;5053052;28;11480;-80
2023/05/16 00:58:27;;;;;;;;;2.25;2.25;;;;;;;;5045443;28;11338;-81
2023/05/16 01:00:54;;;;;;;;;3.00;2.00;;;;;;;;5039165;28;11019;-81
2023/05/16 01:03:21;;;;;;;;;3.75;3.00;;;;;;;;5052030;28;11442;-82
2023/05/16 01:05:49;;;;;;;;;2.50;2.50;;;;;;;;5044266;28;11560;-82
2023/05/16 01:08:17;;;;;;;;;4.00;2.25;;;;;;;;5051636;28;11212;-84
2023/05/16 01:10:49;;;;;;;;;2.75;2.75;;;;;;;;5050845;28;11464;-82
2023/05/16 01:13:24;;;;;;;;;3.00;3.00;;;;;;;;5051934;28;11489;-84
2023/05/16 01:16:00;;;;;;;;;2.00;2.00;;;;;;;;5051672;28;11500;-82
2023/05/16 01:18:34;;;;;;;;;3.00;3.00;;;;;;;;5052380;28;11469;-84
2023/05/16 01:21:07;;;;;;;;;6.50;4.00;;;;;;;;5051817;28;11557;-85
2023/05/16 01:23:43;;;;;;;;;4.75;3.00;;;;;;;;5051756;28;11472;-85
2023/05/16 01:26:17;;;;;;;;;2.00;2.00;;;;;;;;5051983;28;11564;-81
2023/05/16 01:28:47;;;;;;;;;4.00;2.25;;;;;;;;5051213;28;11464;-85
2023/05/16 01:31:15;;;;;;;;;3.00;2.50;;;;;;;;5051600;28;11433;-78
2023/05/16 01:33:42;;;;;;;;;4.00;1.00;;;;;;;;5051277;28;11461;-83
2023/05/16 01:36:15;;;;;;;;;4.00;2.00;;;;;;;;5051796;28;11441;-82
2023/05/16 01:38:46;;;;;;;;;2.25;2.25;;;;;;;;5065301;28;12243;-83
2023/05/16 01:41:21;;;;;;;;;2.25;2.25;;;;;;;;5052971;28;11475;-85
2023/05/16 01:43:52;;;;;;;;;3.00;1.75;;;;;;;;5051284;28;11460;-86
2023/05/16 01:46:25;;;;;;;;;2.25;2.25;;;;;;;;5050961;28;12277;-85
2023/05/16 01:48:55;;;;;;;;;3.50;2.00;;;;;;;;5051260;28;12289;-84
2023/05/16 01:51:24;;;;;;;;;6.50;4.00;;;;;;;;5051282;28;11590;-80
2023/05/16 01:53:53;;;;;;;;;4.00;2.00;;;;;;;;5051743;28;11574;-82
2023/05/16 01:56:25;;;;;;;;;5.25;3.00;;;;;;;;5051090;28;11481;-80
2023/05/16 01:58:54;;;;;;;;;3.00;2.00;;;;;;;;5052316;28;11483;-80
2023/05/16 02:01:21;;;;;;;;;2.50;2.00;;;;;;;;5052252;28;11380;-80
2023/05/16 02:03:48;;;;;;;;;2.25;2.25;;;;;;;;5050940;28;11565;-84
2023/05/16 02:06:15;;;;;;;;;2.00;2.00;;;;;;;;5049819;28;11588;-78
2023/05/16 02:08:42;;;;;;;;;3.00;3.00;;;;;;;;5051533;28;11459;-83
2023/05/16 02:11:10;;;;;;;;;2.00;2.00;;;;;;;;5050477;28;11448;-79
2023/05/16 02:13:38;;;;;;;;;5.25;3.00;;;;;;;;5051044;28;11489;-83
2023/05/16 02:16:06;;;;;;;;;4.00;1.50;;;;;;;;5048342;28;11463;-82
2023/05/16 02:18:33;;;;;;;;;3.00;3.00;;;;;;;;5050550;28;11447;-81
2023/05/16 02:21:01;;;;;;;;;6.25;3.75;;;;;;;;5050478;28;11457;-81
2023/05/16 02:23:28;;;;;;;;;3.75;3.75;;;;;;;;5050662;28;11599;-82
2023/05/16 02:25:55;;;;;;;;;3.00;3.00;;;;;;;;5048288;28;11531;-81
2023/05/16 02:28:22;;;;;;;;;3.75;1.00;;;;;;;;5050594;28;11440;-82
2023/05/16 02:31:08;;;;;;;;;3.00;3.00;;;;;;;;5049918;28;11445;-83
2023/05/16 02:33:35;;;;;;;;;2.50;2.50;;;;;;;;5049967;28;11428;-81
2023/05/16 02:36:03;;;;;;;;;3.25;2.50;;;;;;;;5050716;28;11459;-80
2023/05/16 02:38:30;;;;;;;;;3.00;3.00;;;;;;;;5050344;28;11437;-80
2023/05/16 02:40:57;;;;;;;;;4.00;4.00;;;;;;;;5051362;28;11532;-80
2023/05/16 02:43:24;;;;;;;;;2.00;2.00;;;;;;;;5049419;28;11488;-80
2023/05/16 02:45:52;;;;;;;;;3.75;2.00;;;;;;;;5051490;28;11443;-80
2023/05/16 02:48:20;;;;;;;;;7.50;3.00;;;;;;;;5048674;28;11617;-81
2023/05/16 02:50:48;;;;;;;;;8.00;4.00;;;;;;;;5049897;28;11469;-81
2023/05/16 02:53:15;;;;;;;;;4.25;4.25;;;;;;;;5047926;28;11529;-82
2023/05/16 02:55:42;;;;;;;;;3.25;3.25;;;;;;;;5043654;28;11516;-84
2023/05/16 02:58:09;;;;;;;;;3.00;3.00;;;;;;;;5040878;28;11581;-80
2023/05/16 03:00:37;;;;;;;;;10.00;4.25;;;;;;;;5049221;28;11507;-83
2023/05/16 03:03:04;;;;;;;;;4.50;2.50;;;;;;;;5050228;28;11491;-86
2023/05/16 03:05:33;;;;;;;;;6.25;3.50;;;;;;;;5048829;28;11572;-83
2023/05/16 03:08:00;;;;;;;;;4.00;3.00;;;;;;;;5040967;28;11509;-85
2023/05/16 03:10:27;;;;;;;;;2.75;2.75;;;;;;;;5049896;28;11570;-81
2023/05/16 03:12:55;;;;;;;;;3.00;3.00;;;;;;;;5049662;28;12520;-85
2023/05/16 03:15:22;;;;;;;;;4.00;2.75;;;;;;;;5049918;28;11424;-82
2023/05/16 03:17:49;;;;;;;;;4.00;2.25;;;;;;;;5048958;28;12315;-81
2023/05/16 03:20:19;;;;;;;;;2.50;1.50;;;;;;;;5049835;28;11505;-86
2023/05/16 03:22:47;;;;;;;;;3.00;3.00;;;;;;;;5049563;28;11479;-86
2023/05/16 03:25:15;;;;;;;;;2.75;2.75;;;;;;;;5050214;28;11593;-87
2023/05/16 03:27:42;;;;;;;;;6.00;3.25;;;;;;;;5045659;28;12357;-85
2023/05/16 03:30:10;;;;;;;;;6.25;3.00;;;;;;;;5048885;28;11517;-83
2023/05/16 03:32:38;;;;;;;;;6.75;4.25;;;;;;;;5047193;28;12356;-85
2023/05/16 03:35:06;;;;;;;;;8.00;3.00;;;;;;;;5043793;28;11504;-82
2023/05/16 03:37:33;;;;;;;;;4.00;3.00;;;;;;;;5049057;28;11509;-83
2023/05/16 03:40:04;;;;;;;;;3.25;2.00;;;;;;;;5049008;28;11530;-80
2023/05/16 03:42:31;;;;;;;;;4.25;4.25;;;;;;;;5048143;28;11513;-85
2023/05/16 03:44:58;;;;;;;;;6.00;3.00;;;;;;;;5048614;28;11540;-87
2023/05/16 03:47:29;;;;;;;;;5.00;2.25;;;;;;;;5047308;28;12385;-83
2023/05/16 03:49:56;;;;;;;;;6.25;5.00;;;;;;;;5047519;28;11509;-83
2023/05/16 03:52:24;;;;;;;;;5.50;3.75;;;;;;;;5048056;28;11528;-82
2023/05/16 03:54:53;;;;;;;;;4.00;4.00;;;;;;;;5047880;28;12235;-82
2023/05/16 03:57:22;;;;;;;;;3.75;3.00;;;;;;;;5048130;28;11518;-83
2023/05/16 03:59:49;;;;;;;;;2.00;2.00;;;;;;;;5047759;28;11642;-87
2023/05/16 04:02:16;;;;;;;;;5.50;3.00;;;;;;;;5047372;28;11473;-81
2023/05/16 04:04:44;;;;;;;;;8.00;4.25;;;;;;;;5048140;28;11514;-82
2023/05/16 04:07:11;;;;;;;;;5.25;5.25;;;;;;;;5048046;28;11517;-83
2023/05/16 04:09:39;;;;;;;;;8.50;4.00;;;;;;;;5048008;28;11673;-81
2023/05/16 04:12:07;;;;;;;;;7.75;3.00;;;;;;;;5047813;28;11490;-83
2023/05/16 04:14:36;;;;;;;;;6.25;5.00;;;;;;;;5056970;28;11518;-83
2023/05/16 04:17:03;;;;;;;;;2.75;2.75;;;;;;;;5041229;28;11593;-83
2023/05/16 04:19:30;;;;;;;;;4.25;4.25;;;;;;;;5048467;28;11517;-90
2023/05/16 04:21:57;;;;;;;;;7.00;5.00;;;;;;;;5048794;28;11510;-85
2023/05/16 04:24:27;;;;;;;;;3.25;3.25;;;;;;;;5048486;28;11496;-80
2023/05/16 04:26:55;;;;;;;;;8.00;7.25;;;;;;;;5040989;28;11593;-80
2023/05/16 04:29:22;;;;;;;;;6.25;2.25;;;;;;;;5047327;28;11553;-81
2023/05/16 04:31:56;;;;;;;;;9.00;7.75;;;;;;;;5048660;28;12240;-81
2023/05/16 04:34:26;;;;;;;;;4.00;4.00;;;;;;;;5041119;28;11552;-80
2023/05/16 04:36:55;;;;;;;;;6.25;4.50;;;;;;;;5049350;28;11521;-81
2023/05/16 04:39:22;;;;;;;;;5.75;2.00;;;;;;;;5048611;28;11602;-81
2023/05/16 04:41:53;;;;;;;;;7.00;7.00;;;;;;;;5046706;28;11657;-80
2023/05/16 04:44:20;;;;;;;;;5.50;3.25;;;;;;;;5037934;28;11499;-81
2023/05/16 04:46:48;;;;;;;;;4.75;4.75;;;;;;;;5047019;28;11497;-81
2023/05/16 04:49:17;;;;;;;;;4.75;3.00;;;;;;;;5048091;28;11659;-86
2023/05/16 04:51:44;;;;;;;;;3.75;3.00;;;;;;;;5047471;28;11656;-82
2023/05/16 04:54:11;;;;;;;;;4.00;4.00;;;;;;;;5047577;28;11501;-81
2023/05/16 04:56:39;;;;;;;;;5.50;5.50;;;;;;;;5047851;28;12204;-83
2023/05/16 04:59:06;;;;;;;;;3.75;3.75;;;;;;;;5047377;28;11525;-82
2023/05/16 05:01:33;;;;;;;;;4.00;4.00;;;;;;;;5047396;28;11382;-82
2023/05/16 05:04:01;;;;;;;;;6.25;6.25;;;;;;;;5046786;28;11616;-85
2023/05/16 05:06:30;;;;;;;;;8.75;7.75;;;;;;;;5047534;28;11613;-83
2023/05/16 05:08:57;;;;;;;;;4.00;4.00;;;;;;;;5046779;28;11495;-82
2023/05/16 05:11:26;;;;;;;;;4.00;2.75;;;;;;;;5047435;28;11619;-82
2023/05/16 05:13:53;;;;;;;;;4.00;4.00;;;;;;;;5045171;28;11497;-84
2023/05/16 05:16:20;;;;;;;;;8.00;5.25;;;;;;;;5045899;28;11525;-80
2023/05/16 05:18:48;;;;;;;;;6.50;4.00;;;;;;;;5047503;28;11628;-84
2023/05/16 05:21:15;;;;;;;;;6.50;4.00;;;;;;;;5047701;28;11440;-82
2023/05/16 05:23:44;;;;;;;;;4.25;4.25;;;;;;;;5047563;28;11447;-84
2023/05/16 05:26:12;;;;;;;;;3.25;3.00;;;;;;;;5047939;28;11653;-82
2023/05/16 05:28:39;;;;;;;;;10.50;5.50;;;;;;;;5047191;28;11595;-89
2023/05/16 05:31:08;;;;;;;;;3.75;3.75;;;;;;;;5046820;28;12251;-81
2023/05/16 05:33:35;;;;;;;;;2.00;2.00;;;;;;;;5046564;28;11423;-81
2023/05/16 05:36:02;;;;;;;;;3.50;3.50;;;;;;;;5046377;28;11588;-81
2023/05/16 05:38:30;;;;;;;;;5.00;3.50;;;;;;;;5046237;28;11438;-83
2023/05/16 05:40:59;;;;;;;;;2.75;2.75;;;;;;;;5049145;28;11538;-82
2023/05/16 05:43:26;;;;;;;;;6.00;3.75;;;;;;;;5050182;28;11462;-81
2023/05/16 05:45:54;;;;;;;;;4.00;4.00;;;;;;;;5048330;28;11459;-83
2023/05/16 05:48:21;;;;;;;;;2.25;1.00;;;;;;;;5050422;28;11562;-84
2023/05/16 05:50:49;;;;;;;;;1.00;1.00;;;;;;;;5049588;28;11590;-82
2023/05/16 05:53:16;;;;;;;;;6.75;4.00;;;;;;;;5045919;28;11507;-84
2023/05/16 05:55:43;;;;;;;;;8.25;3.00;;;;;;;;5047786;28;11451;-82
2023/05/16 05:58:12;;;;;;;;;2.00;2.00;;;;;;;;5049935;28;11761;-84
2023/05/16 06:00:39;;;;;;;;;3.00;3.00;;;;;;;;5049524;28;11244;-81
2023/05/16 06:03:07;;;;;;;;;3.00;3.00;;;;;;;;5049563;28;11551;-82
2023/05/16 06:05:34;;;;;;;;;2.75;2.50;;;;;;;;5050014;28;11437;-82
2023/05/16 06:08:01;;;;;;;;;2.00;2.00;;;;;;;;5050061;28;11226;-82
2023/05/16 06:10:28;;;;;;;;;1.50;1.50;;;;;;;;5051045;28;11442;-85
2023/05/16 06:12:55;;;;;;;;;3.50;2.25;;;;;;;;5049503;28;11190;-81
2023/05/16 06:15:25;;;;;;;;;6.00;2.00;;;;;;;;5049438;28;11319;-81
2023/05/16 06:17:52;;;;;;;;;3.75;2.00;;;;;;;;5050513;28;11357;-81
2023/05/16 06:20:19;;;;;;;;;3.00;3.00;;;;;;;;5051044;28;11110;-81
2023/05/16 06:22:47;;;;;;;;;8.00;2.50;;;;;;;;5050645;28;10978;-82
2023/05/16 06:25:14;;;;;;;;;2.75;2.25;;;;;;;;5041141;28;10992;-82
2023/05/16 06:27:41;;;;;;;;;4.00;4.00;;;;;;;;5043177;28;10917;-81
2023/05/16 06:30:09;;;;;;;;;4.00;3.75;;;;;;;;5048619;28;11077;-81
2023/05/16 06:32:39;;;;;;;;;2.00;2.00;;;;;;;;5049203;28;11098;-78
2023/05/16 06:35:07;;;;;;;;;4.75;2.25;;;;;;;;5038242;28;10926;-77
2023/05/16 06:37:34;;;;;;;;;3.25;3.25;;;;;;;;5047843;28;10865;-78
2023/05/16 06:40:02;;;;;;;;;2.75;2.00;;;;;;;;5048440;28;10943;-76
2023/05/16 06:42:29;;;;;;;;;6.75;2.00;;;;;;;;5048349;28;10822;-81
2023/05/16 06:44:56;;;;;;;;;2.00;2.00;;;;;;;;5047346;28;10830;-81
2023/05/16 06:47:24;;;;;;;;;3.50;3.00;;;;;;;;5048492;28;11733;-79
2023/05/16 06:49:53;;;;;;;;;4.00;2.00;;;;;;;;5048238;28;10869;-76
2023/05/16 06:52:20;;;;;;;;;3.00;1.00;;;;;;;;5048468;28;10766;-79
2023/05/16 06:54:47;;;;;;;;;3.00;3.00;;;;;;;;5048328;28;10713;-82
2023/05/16 06:57:15;;;;;;;;;1.75;1.75;;;;;;;;5048514;28;10541;-81
2023/05/16 06:59:43;;;;;;;;;2.00;2.00;;;;;;;;5048677;28;10775;-80
2023/05/16 07:02:10;;;;;;;;;1.50;1.50;;;;;;;;5047701;28;10505;-81
2023/05/16 07:04:37;;;;;;;;;3.00;2.00;;;;;;;;5048122;28;10577;-85
2023/05/16 07:07:06;;;;;;;;;2.00;2.00;;;;;;;;5038564;28;10377;-80
2023/05/16 07:09:34;;;;;;;;;4.50;3.00;;;;;;;;5047777;28;10511;-80
2023/05/16 07:12:01;;;;;;;;;11.00;10.00;;;;;;;;5048026;28;11125;-80
2023/05/16 07:14:28;;;;;;;;;16.50;13.00;;;;;;;;5047878;28;11306;-78
2023/05/16 07:16:56;;;;;;;;;14.00;12.50;;;;;;;;5047864;28;11619;-79
2023/05/16 07:19:23;;;;;;;;;8.50;8.50;;;;;;;;5047765;28;11940;-81
2023/05/16 07:21:50;;;;;;;;;12.00;10.75;;;;;;;;5048039;28;10991;-79
2023/05/16 07:24:19;;;;;;;;;5.00;5.00;;;;;;;;5047478;28;11043;-81
2023/05/16 07:26:46;;;;;;;;;4.00;4.00;;;;;;;;5048321;28;10957;-82
2023/05/16 07:29:14;;;;;;;;;2.50;2.50;;;;;;;;5047169;28;11620;-83
2023/05/16 07:31:41;;;;;;;;;2.25;1.00;;;;;;;;5048122;28;11164;-82
2023/05/16 07:34:09;;;;;;;;;2.00;0.75;;;;;;;;5047642;28;10671;-79
2023/05/16 07:36:36;;;;;;;;;1.00;1.00;;;;;;;;5047838;28;10232;-79
2023/05/16 07:39:04;;;;;;;;;0.00;0.00;;;;;;;;5046948;28;10153;-79
2023/05/16 07:41:32;;;;;;;;;1.50;1.50;;;;;;;;5047802;28;9925;-80
2023/05/16 07:44:00;;;;;;;;;1.00;1.00;;;;;;;;5047586;28;9858;-79
2023/05/16 07:46:27;;;;;;;;;3.00;1.00;;;;;;;;5046666;28;9808;-79
2023/05/16 07:48:54;;;;;;;;;0.25;0.25;;;;;;;;5047108;28;9704;-80
2023/05/16 07:51:21;;;;;;;;;3.00;1.50;;;;;;;;5047735;28;9904;-80
2023/05/16 07:53:48;;;;;;;;;1.00;1.00;;;;;;;;5048176;28;9721;-80
2023/05/16 07:56:18;;;;;;;;;2.00;2.00;;;;;;;;5047542;28;9867;-80
2023/05/16 07:58:47;;;;;;;;;2.75;1.00;;;;;;;;5047989;28;9759;-82
2023/05/16 08:01:15;;;;;;;;;1.00;1.00;;;;;;;;5045954;28;9547;-79
2023/05/16 08:03:43;;;;;;;;;0.00;0.00;;;;;;;;5047256;28;9674;-80
2023/05/16 08:06:10;;;;;;;;;1.00;1.00;;;;;;;;5046619;28;9671;-79
2023/05/16 08:08:37;;;;;;;;;0.67;0.33;;;;;;;;5048328;28;9465;-80
2023/05/16 08:11:05;;;;;;;;;1.00;1.00;;;;;;;;5047138;28;9352;-79
2023/05/16 08:13:32;;;;;;;;;1.00;1.00;;;;;;;;5049367;28;9429;-79
2023/05/16 08:16:01;;;;;;;;;1.00;1.00;;;;;;;;5047510;28;9328;-80
2023/05/16 08:18:28;;;;;;;;;1.00;1.00;;;;;;;;5041214;28;9345;-80
2023/05/16 08:20:55;;;;;;;;;2.00;1.00;;;;;;;;5043934;28;9255;-80
2023/05/16 08:23:26;;;;;;;;;2.75;2.75;;;;;;;;5046864;28;9316;-79
2023/05/16 08:25:54;;;;;;;;;1.00;1.00;;;;;;;;5046291;28;9499;-79
2023/05/16 08:28:21;;;;;;;;;1.00;1.00;;;;;;;;5047510;28;9337;-80
2023/05/16 08:30:48;;;;;;;;;0.00;0.00;;;;;;;;5046908;28;9342;-80
2023/05/16 08:33:17;;;;;;;;;2.00;0.00;;;;;;;;5046564;28;9316;-79
2023/05/16 08:35:45;;;;;;;;;1.00;1.00;;;;;;;;5046517;28;9300;-79
2023/05/16 08:38:12;;;;;;;;;0.00;0.00;;;;;;;;5047233;28;9648;-79
2023/05/16 08:40:41;;;;;;;;;0.00;0.00;;;;;;;;5041203;28;9734;-78
2023/05/16 08:43:09;;;;;;;;;2.00;0.25;;;;;;;;5046810;28;8966;-80
2023/05/16 08:45:36;;;;;;;;;1.00;1.00;;;;;;;;5046952;28;8869;-79
2023/05/16 08:48:06;;;;;;;;;1.67;1.67;;;;;;;;5046093;28;8859;-80
2023/05/16 08:50:36;;;;;;;;;0.00;0.00;;;;;;;;5047147;28;8937;-81
2023/05/16 08:53:06;;;;;;;;;0.00;0.00;;;;;;;;5046239;28;8883;-79
2023/05/16 08:55:35;;;;;;;;;1.00;1.00;;;;;;;;5046788;28;9704;-79
2023/05/16 08:58:02;;;;;;;;;1.00;1.00;;;;;;;;5046475;28;8885;-79
2023/05/16 09:00:30;;;;;;;;;1.00;1.00;;;;;;;;5046466;28;8747;-81
2023/05/16 09:02:58;;;;;;;;;2.00;0.00;;;;;;;;5045605;28;8851;-79
2023/05/16 09:05:26;;;;;;;;;0.00;0.00;;;;;;;;5046694;28;8863;-80
2023/05/16 09:07:54;;;;;;;;;2.50;1.00;;;;;;;;5045962;28;9758;-79
2023/05/16 09:10:22;;;;;;;;;1.00;1.00;;;;;;;;5046872;28;8851;-80
2023/05/16 09:12:49;;;;;;;;;2.00;2.00;;;;;;;;5046530;28;9032;-80
2023/05/16 09:15:19;;;;;;;;;0.25;0.25;;;;;;;;5049845;28;8875;-80
2023/05/16 09:17:47;;;;;;;;;2.00;2.00;;;;;;;;5050551;28;8851;-80
2023/05/16 09:20:16;;;;;;;;;0.00;0.00;;;;;;;;5050434;28;9697;-80
2023/05/16 09:22:52;;;;;;;;;0.00;0.00;;;;;;;;5050159;28;8897;-81
2023/05/16 09:25:21;;;;;;;;;0.00;0.00;;;;;;;;5050949;28;8863;-81
2023/05/16 09:27:48;;;;;;;;;2.00;0.00;;;;;;;;5051064;28;9645;-80
2023/05/16 09:30:16;;;;;;;;;1.00;1.00;;;;;;;;5049794;28;9001;-80
2023/05/16 09:32:44;;;;;;;;;0.50;0.00;;;;;;;;5040021;28;8921;-80
2023/05/16 09:35:15;;;;;;;;;0.00;0.00;;;;;;;;5049542;28;8972;-82
2023/05/16 09:37:46;;;;;;;;;1.00;0.50;;;;;;;;5050407;28;8879;-79
2023/05/16 09:40:13;;;;;;;;;0.00;0.00;;;;;;;;5050276;28;9238;-80
2023/05/16 09:42:43;;;;;;;;;0.50;0.50;;;;;;;;5050452;28;9085;-81
2023/05/16 09:45:13;;;;;;;;;1.00;1.00;;;;;;;;5048810;28;8839;-83
2023/05/16 09:47:45;;;;;;;;;1.00;1.00;;;;;;;;5050067;28;8850;-82
2023/05/16 09:50:14;;;;;;;;;0.25;0.25;;;;;;;;5045043;28;9081;-82
2023/05/16 09:52:42;;;;;;;;;1.00;1.00;;;;;;;;5050335;28;8839;-82
2023/05/16 09:55:10;;;;;;;;;0.00;0.00;;;;;;;;5050348;28;8866;-83
2023/05/16 09:57:39;;;;;;;;;0.00;0.00;;;;;;;;5050835;28;8985;-81
2023/05/16 10:00:12;;;;;;;;;2.00;0.00;;;;;;;;5051291;28;8978;-81
2023/05/16 10:02:39;;;;;;;;;0.00;0.00;;;;;;;;5051358;28;8839;-82
2023/05/16 10:05:07;;;;;;;;;0.75;0.75;;;;;;;;5045443;28;8855;-80
2023/05/16 10:07:34;;;;;;;;;0.00;0.00;;;;;;;;5042140;28;8857;-79
2023/05/16 10:10:04;;;;;;;;;1.00;1.00;;;;;;;;5053849;28;9007;-80
2023/05/16 10:12:32;;;;;;;;;0.75;0.75;;;;;;;;5035287;28;8875;-78
2023/05/16 10:15:01;;;;;;;;;0.25;0.25;;;;;;;;5049143;28;8970;-77
2023/05/16 10:17:33;;;;;;;;;0.50;0.25;;;;;;;;5037199;28;8849;-78
2023/05/16 10:20:04;;;;;;;;;0.00;0.00;;;;;;;;5041839;28;8863;-79
2023/05/16 10:22:35;;;;;;;;;0.75;0.75;;;;;;;;5041705;28;8819;-79
2023/05/16 10:25:09;;;;;;;;;2.75;0.00;;;;;;;;5046363;28;8887;-78
2023/05/16 10:27:38;;;;;;;;;1.00;1.00;;;;;;;;5046918;28;8905;-82
2023/05/16 10:30:08;;;;;;;;;0.00;0.00;;;;;;;;5046209;28;8859;-79
2023/05/16 10:32:37;;;;;;;;;1.00;0.25;;;;;;;;5038813;28;8852;-80
2023/05/16 10:35:05;;;;;;;;;0.00;0.00;;;;;;;;5048648;28;8839;-79
2023/05/16 10:37:32;;;;;;;;;0.50;0.00;;;;;;;;5043924;28;8847;-81
2023/05/16 10:40:00;;;;;;;;;0.25;0.00;;;;;;;;5036707;28;8855;-80
2023/05/16 10:42:27;;;;;;;;;2.00;0.50;;;;;;;;5049053;28;8953;-81
2023/05/16 10:44:55;;;;;;;;;5.00;4.50;;;;;;;;5045978;28;8863;-80
2023/05/16 10:47:23;;;;;;;;;2.75;2.75;;;;;;;;5038644;28;8882;-80
2023/05/16 10:49:51;;;;;;;;;1.00;1.00;;;;;;;;5045469;28;8897;-80
2023/05/16 10:52:19;;;;;;;;;1.00;1.00;;;;;;;;5039847;28;8859;-81
2023/05/16 10:54:51;;;;;;;;;1.75;0.25;;;;;;;;5046738;28;8966;-77
2023/05/16 10:57:20;;;;;;;;;1.00;1.00;;;;;;;;5042434;28;8843;-76
2023/05/16 10:59:49;;;;;;;;;0.00;0.00;;;;;;;;5047888;28;9641;-77
2023/05/16 11:02:26;;;;;;;;;0.00;0.00;;;;;;;;5044115;28;8800;-77
2023/05/16 11:04:58;;;;;;;;;1.00;1.00;;;;;;;;5031213;28;8829;-78
2023/05/16 11:07:26;;;;;;;;;0.75;0.75;;;;;;;;5047226;28;8875;-79
2023/05/16 11:10:07;;;;;;;;;2.00;0.00;;;;;;;;5048959;28;8882;-78
2023/05/16 11:12:39;;;;;;;;;2.75;1.00;;;;;;;;5048314;28;8871;-83
2023/05/16 11:15:23;;;;;;;;;1.75;1.75;;;;;;;;5048434;28;8859;-76
2023/05/16 11:17:51;;;;;;;;;0.75;0.75;;;;;;;;5044998;28;8993;-78
2023/05/16 11:20:31;;;;;;;;;1.50;0.75;;;;;;;;5039981;28;8857;-78
2023/05/16 11:23:23;;;;;;;;;0.25;0.25;;;;;;;;5045716;28;8874;-80
2023/05/16 11:25:53;;;;;;;;;1.75;1.00;;;;;;;;5048035;28;8851;-80
2023/05/16 11:28:21;;;;;;;;;0.00;0.00;;;;;;;;5044151;28;8843;-79
2023/05/16 11:30:51;;;;;;;;;2.00;2.00;;;;;;;;5047500;28;8823;-79
2023/05/16 11:33:19;;;;;;;;;1.00;1.00;;;;;;;;5047689;28;8879;-79
2023/05/16 11:36:03;;;;;;;;;1.50;1.50;;;;;;;;5042555;28;8854;-77
2023/05/16 11:38:31;;;;;;;;;2.00;2.00;;;;;;;;5036729;28;8880;-77
2023/05/16 11:41:05;;;;;;;;;0.25;0.25;;;;;;;;5032056;28;8849;-77
2023/05/16 11:43:38;;;;;;;;;0.25;0.25;;;;;;;;5038440;28;8859;-78
2023/05/16 11:46:06;;;;;;;;;2.00;1.00;;;;;;;;5048544;28;8867;-78
2023/05/16 11:48:34;;;;;;;;;1.00;1.00;;;;;;;;5049024;28;8847;-78
2023/05/16 11:51:01;;;;;;;;;2.00;2.00;;;;;;;;5049278;28;8920;-76
2023/05/16 11:53:30;;;;;;;;;1.40;1.40;;;;;;;;5033655;28;8873;-77
2023/05/16 11:56:00;;;;;;;;;2.00;2.00;;;;;;;;5034684;28;8944;-76
2023/05/16 11:58:27;;;;;;;;;4.50;3.00;;;;;;;;5045508;28;8889;-76
2023/05/16 12:00:54;;;;;;;;;0.40;0.40;;;;;;;;5041362;28;8830;-76
2023/05/16 12:03:22;;;;;;;;;0.40;0.40;;;;;;;;5040117;28;9387;-76
2023/05/16 12:05:53;;;;;;;;;1.00;1.00;;;;;;;;5047925;28;8854;-76
2023/05/16 12:08:23;;;;;;;;;1.00;1.00;;;;;;;;5043893;28;8836;-76
2023/05/16 12:10:52;;;;;;;;;2.00;2.00;;;;;;;;5047651;28;8861;-76
2023/05/16 12:13:21;;;;;;;;;1.60;1.60;;;;;;;;5046845;28;8877;-77
2023/05/16 12:15:48;;;;;;;;;1.00;1.00;;;;;;;;5047211;28;8863;-76
2023/05/16 12:18:16;;;;;;;;;7.20;4.00;;;;;;;;5035668;28;8843;-79
2023/05/16 12:20:44;;;;;;;;;7.25;6.00;;;;;;;;5046387;28;8855;-78
2023/05/16 12:23:28;;;;;;;;;2.20;2.20;;;;;;;;5045654;28;8886;-79
2023/05/16 12:26:00;;;;;;;;;2.20;1.20;;;;;;;;5045294;28;8855;-76
2023/05/16 12:28:31;;;;;;;;;2.00;2.00;;;;;;;;5045966;28;8859;-77
2023/05/16 12:30:59;;;;;;;;;2.60;2.00;;;;;;;;5045957;28;8906;-77
2023/05/16 12:33:26;;;;;;;;;2.00;2.00;;;;;;;;5047462;28;8969;-77
2023/05/16 12:35:53;;;;;;;;;2.80;2.80;;;;;;;;5046525;28;9001;-77
2023/05/16 12:38:25;;;;;;;;;3.60;3.60;;;;;;;;5047585;28;8859;-77
2023/05/16 12:40:59;;;;;;;;;2.60;2.60;;;;;;;;5046993;28;8851;-77
2023/05/16 12:43:27;;;;;;;;;2.00;2.00;;;;;;;;5046222;28;8869;-79
2023/05/16 12:45:56;;;;;;;;;2.00;2.00;;;;;;;;5045465;28;8959;-78
2023/05/16 12:48:25;;;;;;;;;1.00;1.00;;;;;;;;5046329;28;8871;-77
2023/05/16 12:50:52;;;;;;;;;2.00;2.00;;;;;;;;5051131;28;8863;-77
2023/05/16 12:53:20;;;;;;;;;2.60;2.60;;;;;;;;5050889;28;9077;-77
2023/05/16 12:55:47;;;;;;;;;2.20;2.20;;;;;;;;5051307;28;8858;-77
2023/05/16 12:58:16;;;;;;;;;2.00;2.00;;;;;;;;5050368;28;8957;-77
2023/05/16 13:00:43;;;;;;;;;3.00;2.60;;;;;;;;5050153;28;8983;-78
2023/05/16 13:03:10;;;;;;;;;5.00;4.00;;;;;;;;5050390;28;8908;-78
2023/05/16 13:05:38;;;;;;;;;9.00;9.00;;;;;;;;5048178;28;8846;-78
2023/05/16 13:08:06;;;;;;;;;1.20;1.20;;;;;;;;5043493;28;8900;-76
2023/05/16 13:10:33;;;;;;;;;2.00;2.00;;;;;;;;5044201;28;8994;-77
2023/05/16 13:13:00;;;;;;;;;1.80;1.80;;;;;;;;5048455;28;8873;-79
2023/05/16 13:15:30;;;;;;;;;1.60;1.00;;;;;;;;5050849;28;8863;-77
2023/05/16 13:17:57;;;;;;;;;1.00;1.00;;;;;;;;5044652;28;8847;-77
2023/05/16 13:20:28;;;;;;;;;1.60;1.60;;;;;;;;5044826;28;8875;-76
2023/05/16 13:22:55;;;;;;;;;1.00;1.00;;;;;;;;5046817;28;8960;-77
2023/05/16 13:25:24;;;;;;;;;1.25;1.25;;;;;;;;5048709;28;8970;-77
2023/05/16 13:27:54;;;;;;;;;0.00;0.00;;;;;;;;5050643;28;8883;-78
2023/05/16 13:30:21;;;;;;;;;2.00;2.00;;;;;;;;5044576;28;9746;-76
2023/05/16 13:32:51;;;;;;;;;1.00;1.00;;;;;;;;5044412;28;8905;-77
2023/05/16 13:35:18;;;;;;;;;0.00;0.00;;;;;;;;5044017;28;8866;-79
2023/05/16 13:37:46;;;;;;;;;0.00;0.00;;;;;;;;5050390;28;8839;-78
2023/05/16 13:40:13;;;;;;;;;1.00;1.00;;;;;;;;5045206;28;8863;-78
2023/05/16 13:42:40;;;;;;;;;1.00;1.00;;;;;;;;5047706;28;8883;-78
2023/05/16 13:45:11;;;;;;;;;0.25;0.25;;;;;;;;5048152;28;8859;-77
2023/05/16 13:47:38;;;;;;;;;0.00;0.00;;;;;;;;5044951;28;8842;-76
2023/05/16 13:50:09;;;;;;;;;0.00;0.00;;;;;;;;5039851;28;8847;-76
2023/05/16 13:52:37;;;;;;;;;2.25;1.00;;;;;;;;5041917;28;8894;-77
2023/05/16 13:55:04;;;;;;;;;0.00;0.00;;;;;;;;5049944;28;8933;-77
2023/05/16 13:57:32;;;;;;;;;0.00;0.00;;;;;;;;5049512;28;8859;-77
2023/05/16 13:59:59;;;;;;;;;0.25;0.25;;;;;;;;5048154;28;8956;-78
2023/05/16 14:02:26;;;;;;;;;0.50;0.50;;;;;;;;5049444;28;8783;-78
2023/05/16 14:04:54;;;;;;;;;0.00;0.00;;;;;;;;5039026;28;8913;-78
2023/05/16 14:07:22;;;;;;;;;0.00;0.00;;;;;;;;5040956;28;8855;-77
2023/05/16 14:09:50;;;;;;;;;0.00;0.00;;;;;;;;5049261;28;8843;-78
2023/05/16 14:12:17;;;;;;;;;0.50;0.50;;;;;;;;5040652;28;8879;-78
2023/05/16 14:14:44;;;;;;;;;0.00;0.00;;;;;;;;5043507;28;9664;-79
2023/05/16 14:17:11;;;;;;;;;1.25;0.00;;;;;;;;5040809;28;8859;-78
2023/05/16 14:19:38;;;;;;;;;0.00;0.00;;;;;;;;5049110;28;8889;-78
2023/05/16 14:22:06;;;;;;;;;0.00;0.00;;;;;;;;5049552;28;8867;-78
2023/05/16 14:24:35;;;;;;;;;0.00;0.00;;;;;;;;5041740;28;8882;-78
2023/05/16 14:27:02;;;;;;;;;1.00;1.00;;;;;;;;5045053;28;9005;-76
2023/05/16 14:29:29;;;;;;;;;0.00;0.00;;;;;;;;5049560;28;8847;-76
2023/05/16 14:31:57;;;;;;;;;1.40;0.60;;;;;;;;5047308;28;8932;-78
2023/05/16 14:34:24;;;;;;;;;0.00;0.00;;;;;;;;5041747;28;8978;-76
2023/05/16 14:36:51;;;;;;;;;0.20;0.20;;;;;;;;5046141;28;8848;-82
2023/05/16 14:39:24;;;;;;;;;0.00;0.00;;;;;;;;5049332;28;8891;-79
2023/05/16 14:41:53;;;;;;;;;0.00;0.00;;;;;;;;5049859;28;9744;-79
2023/05/16 14:44:23;;;;;;;;;0.00;0.00;;;;;;;;5037632;28;8870;-81
2023/05/16 14:46:51;;;;;;;;;0.00;0.00;;;;;;;;5044522;28;8849;-82
2023/05/16 14:49:18;;;;;;;;;0.00;0.00;;;;;;;;5048403;28;8989;-80
2023/05/16 14:51:48;;;;;;;;;0.00;0.00;;;;;;;;5049073;28;8859;-79
2023/05/16 14:54:15;;;;;;;;;0.00;0.00;;;;;;;;5037515;28;8825;-78
2023/05/16 14:56:43;;;;;;;;;2.00;0.00;;;;;;;;5048638;28;8863;-78